Time;durP1;ratioP1;P1;durP2;ratioP2;P2;SDS_P1;SDS_P2;PMS_P1;PMS_P2;Temp;Humidity;BMP_temperature;BMP_pressure;BME280_temperature;BME280_humidity;BME280_pressure;Samples;Min_cycle;Max_cycle;Signal;HPM_P1;HPM_P2
2021/06/26 00:01:10;;;;;;;8.65;4.95;;;;;;;30.66;58.79;100969.84;1654362;86;21037;-51
2021/06/26 00:03:37;;;;;;;9.08;4.37;;;;;;;30.66;58.92;100964.47;1666118;86;21084;-51
2021/06/26 00:06:04;;;;;;;7.92;4.60;;;;;;;30.65;58.87;100958.23;1665418;85;21053;-52
2021/06/26 00:08:31;;;;;;;14.73;5.40;;;;;;;30.62;59.01;100949.17;1671756;85;21560;-51
2021/06/26 00:10:58;;;;;;;7.22;4.60;;;;;;;30.62;58.97;100957.72;1659826;86;21045;-52
2021/06/26 00:13:25;;;;;;;11.00;4.75;;;;;;;30.61;58.94;100953.33;1666935;86;21092;-52
2021/06/26 00:15:51;;;;;;;10.88;4.85;;;;;;;30.61;59.08;100954.19;1664264;86;21025;-57
2021/06/26 00:18:18;;;;;;;8.38;4.75;;;;;;;30.59;58.97;100958.02;1665572;85;21025;-52
2021/06/26 00:20:45;;;;;;;10.58;4.92;;;;;;;30.58;59.03;100955.86;1665486;85;21049;-50
2021/06/26 00:23:12;;;;;;;10.10;5.15;;;;;;;30.57;58.87;100958.68;1659376;85;21060;-52
2021/06/26 00:25:39;;;;;;;12.18;5.35;;;;;;;30.53;58.97;100965.72;1669448;86;21536;-55
2021/06/26 00:28:06;;;;;;;6.10;4.62;;;;;;;30.52;59.06;100976.63;1664313;86;21049;-51
2021/06/26 00:30:33;;;;;;;11.38;5.37;;;;;;;30.49;58.99;100977.78;1664858;86;21048;-50
2021/06/26 00:33:00;;;;;;;7.37;4.95;;;;;;;30.46;59.18;100976.73;1665628;86;21053;-51
2021/06/26 00:35:27;;;;;;;8.53;4.53;;;;;;;30.44;59.14;100973.84;1667470;84;21052;-51
2021/06/26 00:37:55;;;;;;;11.65;5.03;;;;;;;30.41;59.01;100977.71;1666389;85;21074;-51
2021/06/26 00:40:22;;;;;;;12.40;5.60;;;;;;;30.38;58.94;100969.95;1658400;86;21049;-52
2021/06/26 00:42:49;;;;;;;11.38;5.20;;;;;;;30.35;59.22;100972.97;1669820;85;21061;-51
2021/06/26 00:45:17;;;;;;;10.58;5.03;;;;;;;30.35;59.14;100968.94;1660958;86;21042;-56
2021/06/26 00:47:44;;;;;;;8.88;5.25;;;;;;;30.33;58.99;100964.22;1669394;84;21013;-52
2021/06/26 00:50:28;;;;;;;12.07;5.00;;;;;;;30.26;59.20;100964.94;1650537;86;21082;-51
2021/06/26 00:52:55;;;;;;;6.78;5.03;;;;;;;30.25;59.38;100972.14;1618461;87;21033;-51
2021/06/26 00:55:22;;;;;;;9.53;5.22;;;;;;;30.26;59.31;100968.48;1622687;87;22079;-50
2021/06/26 00:57:57;;;;;;;12.65;5.25;;;;;;;30.26;59.34;100959.08;1618998;87;21098;-52
2021/06/26 01:00:30;;;;;;;7.40;4.42;;;;;;;30.18;59.48;100954.98;1618502;87;21042;-52
2021/06/26 01:02:57;;;;;;;9.73;4.97;;;;;;;30.18;59.38;100957.67;1616137;87;20998;-51
2021/06/26 01:05:25;;;;;;;10.43;5.37;;;;;;;30.15;59.43;100949.91;1619674;87;21070;-52
2021/06/26 01:07:52;;;;;;;7.92;4.62;;;;;;;30.13;59.59;100954.59;1610504;87;21050;-52
2021/06/26 01:10:19;;;;;;;9.13;4.70;;;;;;;30.11;59.64;100955.24;1595384;89;21060;-51
2021/06/26 01:12:46;;;;;;;8.68;5.03;;;;;;;30.08;59.69;100954.23;1608018;89;21065;-54
2021/06/26 01:15:16;;;;;;;7.50;5.25;;;;;;;30.03;59.75;100964.56;1608812;89;21090;-52
2021/06/26 01:17:45;;;;;;;7.42;5.42;;;;;;;30.05;59.96;100957.20;1604491;89;21106;-53
2021/06/26 01:20:14;;;;;;;7.28;5.12;;;;;;;30.02;60.15;100956.19;1600851;89;21053;-51
2021/06/26 01:25:24;;;;;;;6.97;5.25;;;;;;;29.95;59.93;100955.09;1567471;90;21112;-51
2021/06/26 01:27:51;;;;;;;12.18;5.55;;;;;;;29.92;59.95;100948.70;1543372;92;21064;-52
2021/06/26 01:30:31;;;;;;;9.43;5.30;;;;;;;29.89;60.13;100951.68;1538712;92;21656;-51
2021/06/26 01:32:58;;;;;;;8.90;5.72;;;;;;;29.86;60.33;100946.64;1537725;92;21060;-54
2021/06/26 01:35:25;;;;;;;13.03;7.03;;;;;;;29.85;60.51;100949.45;1557356;92;21060;-52
2021/06/26 01:37:55;;;;;;;6.97;5.47;;;;;;;29.84;60.54;100953.14;1553235;92;21556;-50
2021/06/26 01:40:24;;;;;;;10.00;5.50;;;;;;;29.82;60.59;100954.61;1600925;89;21138;-52
2021/06/26 01:42:52;;;;;;;8.43;4.95;;;;;;;29.80;60.65;100959.29;1600941;88;21077;-52
2021/06/26 01:45:19;;;;;;;6.97;4.78;;;;;;;29.81;60.64;100945.38;1601126;89;21065;-51
2021/06/26 01:47:50;;;;;;;6.22;5.25;;;;;;;29.78;60.73;100942.50;1592284;88;21540;-52
2021/06/26 01:50:18;;;;;;;6.35;5.50;;;;;;;29.79;60.88;100940.18;1540847;92;21596;-50
2021/06/26 01:52:45;;;;;;;12.25;6.08;;;;;;;29.80;60.98;100928.44;1530632;92;21578;-52
2021/06/26 01:55:14;;;;;;;8.70;4.95;;;;;;;29.82;60.91;100929.13;1535281;92;21146;-52
2021/06/26 01:57:42;;;;;;;10.28;6.05;;;;;;;29.83;60.79;100936.20;1537895;92;21099;-51
2021/06/26 02:00:11;;;;;;;7.28;5.87;;;;;;;29.81;60.69;100934.66;1534345;92;21227;-52
2021/06/26 02:02:42;;;;;;;6.22;5.00;;;;;;;29.84;60.59;100932.53;1534396;92;21559;-51
2021/06/26 02:05:10;;;;;;;7.17;4.85;;;;;;;29.83;60.61;100925.47;1544606;92;21054;-51
2021/06/26 02:07:39;;;;;;;7.70;5.40;;;;;;;29.83;60.70;100934.86;1526203;93;21136;-52
2021/06/26 02:10:08;;;;;;;10.63;5.58;;;;;;;29.82;60.93;100934.49;1483643;96;21145;-54
2021/06/26 02:12:34;;;;;;;9.33;4.75;;;;;;;29.80;61.09;100937.01;1529537;92;21645;-51
2021/06/26 02:15:01;;;;;;;8.45;5.58;;;;;;;29.79;61.18;100944.20;1538497;92;21100;-51
2021/06/26 02:17:28;;;;;;;9.55;5.28;;;;;;;29.77;61.15;100935.47;1560416;91;21066;-53
2021/06/26 02:19:55;;;;;;;6.05;5.35;;;;;;;29.76;60.99;100936.45;1545923;92;21610;-52
2021/06/26 02:22:21;;;;;;;9.23;5.75;;;;;;;29.74;60.83;100937.09;1543777;92;21097;-53
2021/06/26 02:24:48;;;;;;;8.78;5.22;;;;;;;29.71;60.74;100940.06;1541489;92;21066;-52
2021/06/26 02:27:16;;;;;;;9.63;5.70;;;;;;;29.77;60.54;100936.81;1559542;92;21122;-51
2021/06/26 02:29:42;;;;;;;8.80;5.85;;;;;;;29.77;60.49;100942.17;1567539;90;21622;-51
2021/06/26 02:32:10;;;;;;;11.85;6.80;;;;;;;29.72;60.57;100935.03;1560673;90;21049;-52
2021/06/26 02:34:38;;;;;;;12.60;6.08;;;;;;;29.72;60.69;100922.96;1565507;89;21108;-52
2021/06/26 02:37:06;;;;;;;11.53;6.47;;;;;;;29.73;60.67;100917.50;1564965;89;21569;-53
2021/06/26 02:39:33;;;;;;;8.18;5.67;;;;;;;29.76;60.63;100912.30;1578771;91;21081;-52
2021/06/26 02:42:00;;;;;;;12.35;5.90;;;;;;;29.78;60.60;100908.97;1535985;92;21126;-56
2021/06/26 02:44:27;;;;;;;12.55;5.45;;;;;;;29.78;60.62;100910.31;1537585;92;21117;-52
2021/06/26 02:46:54;;;;;;;5.85;5.30;;;;;;;29.80;60.65;100917.70;1576449;88;21343;-52
2021/06/26 02:49:21;;;;;;;6.85;5.72;;;;;;;29.82;60.62;100925.11;1667136;85;21110;-56
2021/06/26 02:51:48;;;;;;;10.20;5.58;;;;;;;29.86;60.52;100937.25;1666686;85;21040;-51
2021/06/26 02:54:15;;;;;;;6.15;5.50;;;;;;;29.88;60.64;100944.64;1667876;84;21101;-52
2021/06/26 02:56:42;;;;;;;8.50;6.20;;;;;;;29.88;60.75;100949.16;1665735;84;21517;-51
2021/06/26 02:59:08;;;;;;;10.20;5.87;;;;;;;29.87;60.91;100956.84;1667533;85;21545;-51
2021/06/26 03:01:35;;;;;;;13.03;5.95;;;;;;;29.85;61.05;100962.37;1666676;85;21053;-52
2021/06/26 03:04:03;;;;;;;11.53;5.80;;;;;;;29.86;61.07;100964.08;1670492;85;21053;-49
2021/06/26 03:06:30;;;;;;;14.05;7.08;;;;;;;29.87;61.05;100970.27;1663198;86;21041;-51
2021/06/26 03:08:57;;;;;;;9.05;6.40;;;;;;;29.87;61.12;100977.82;1663372;85;21091;-50
2021/06/26 03:11:23;;;;;;;10.78;5.50;;;;;;;29.89;61.05;100971.80;1664153;86;21045;-50
2021/06/26 03:13:50;;;;;;;9.80;5.75;;;;;;;29.89;61.10;100983.88;1666738;85;21058;-51
2021/06/26 03:16:18;;;;;;;7.58;5.95;;;;;;;29.92;61.09;100988.10;1667357;86;21065;-51
2021/06/26 03:18:47;;;;;;;8.23;6.65;;;;;;;29.93;60.89;100992.45;1671090;86;21097;-51
2021/06/26 03:21:14;;;;;;;9.95;6.00;;;;;;;29.92;60.86;100991.64;1667019;85;21049;-51
2021/06/26 03:23:41;;;;;;;8.88;6.10;;;;;;;29.95;60.65;100989.98;1661013;85;21077;-52
2021/06/26 03:26:08;;;;;;;9.45;6.42;;;;;;;29.95;60.41;100980.59;1668699;85;21016;-50
2021/06/26 03:28:35;;;;;;;10.35;6.25;;;;;;;29.99;60.30;100987.33;1670082;86;21572;-51
2021/06/26 03:31:02;;;;;;;9.65;6.53;;;;;;;29.97;60.33;100990.66;1665296;85;21104;-52
2021/06/26 03:33:28;;;;;;;7.55;6.58;;;;;;;29.97;60.34;100989.33;1669779;86;21049;-57
2021/06/26 03:35:56;;;;;;;10.50;6.97;;;;;;;30.00;60.20;100986.35;1673234;85;21020;-51
2021/06/26 03:38:23;;;;;;;11.10;7.65;;;;;;;30.01;60.10;100985.34;1664241;85;21033;-51
2021/06/26 03:40:51;;;;;;;12.63;6.10;;;;;;;30.06;59.98;100991.11;1671062;85;21525;-56
2021/06/26 03:43:18;;;;;;;12.75;6.53;;;;;;;30.11;59.82;100992.81;1674107;85;21061;-51
2021/06/26 03:45:44;;;;;;;7.67;6.10;;;;;;;30.20;59.71;101002.66;1671666;85;21531;-50
2021/06/26 03:48:11;;;;;;;11.70;6.65;;;;;;;30.33;59.65;101007.18;1670770;85;21064;-52
2021/06/26 03:50:40;;;;;;;9.30;6.80;;;;;;;30.56;59.17;101008.03;1671052;85;21049;-53
2021/06/26 03:53:07;;;;;;;8.90;6.87;;;;;;;30.85;58.49;101004.61;1663476;86;21556;-52
2021/06/26 03:55:33;;;;;;;9.88;6.30;;;;;;;31.20;57.65;101013.91;1671623;85;21095;-51
2021/06/26 03:58:00;;;;;;;11.68;7.15;;;;;;;31.58;56.59;100999.98;1667397;85;21053;-51
2021/06/26 04:00:27;;;;;;;10.48;6.00;;;;;;;31.96;55.30;100992.72;1671697;85;21079;-52
2021/06/26 04:02:53;;;;;;;8.68;5.83;;;;;;;32.34;54.17;100992.61;1672275;86;21062;-51
2021/06/26 04:05:20;;;;;;;9.03;6.78;;;;;;;32.66;53.02;100989.97;1645704;86;21045;-50
2021/06/26 04:07:48;;;;;;;11.73;6.75;;;;;;;32.87;52.40;100990.78;1655812;86;21037;-51
2021/06/26 04:10:15;;;;;;;8.33;6.33;;;;;;;32.89;52.08;100995.49;1667248;84;21040;-51
2021/06/26 04:12:41;;;;;;;9.80;6.42;;;;;;;32.84;51.90;100995.15;1669092;86;21005;-51
2021/06/26 04:15:10;;;;;;;12.18;6.53;;;;;;;32.77;51.72;100999.03;1656950;85;21094;-51
2021/06/26 04:17:38;;;;;;;10.10;6.35;;;;;;;32.75;51.76;101002.89;1662206;84;21032;-51
2021/06/26 04:20:06;;;;;;;16.42;6.35;;;;;;;32.78;51.66;100994.48;1662603;85;21052;-51
2021/06/26 04:22:33;;;;;;;10.13;6.37;;;;;;;32.79;51.39;101001.55;1672125;85;21101;-52
2021/06/26 04:24:59;;;;;;;8.40;6.25;;;;;;;32.71;51.12;100997.52;1666986;85;21036;-52
2021/06/26 04:27:27;;;;;;;12.37;6.85;;;;;;;32.60;51.16;100992.48;1663795;86;21052;-52
2021/06/26 04:29:54;;;;;;;10.48;6.33;;;;;;;32.47;51.36;100980.88;1648104;86;21070;-51
2021/06/26 04:32:21;;;;;;;10.13;6.12;;;;;;;32.34;51.72;100975.59;1646918;86;21095;-52
2021/06/26 04:34:48;;;;;;;19.57;8.70;;;;;;;32.22;52.16;100967.52;1663302;86;21045;-51
2021/06/26 04:37:17;;;;;;;12.15;6.65;;;;;;;32.07;52.44;100974.06;1662100;85;21102;-52
2021/06/26 04:39:43;;;;;;;8.85;6.75;;;;;;;31.95;52.47;100966.83;1667200;86;21573;-52
2021/06/26 04:42:10;;;;;;;11.95;6.83;;;;;;;31.84;52.84;100967.09;1670221;85;21096;-51
2021/06/26 04:44:37;;;;;;;11.15;6.58;;;;;;;31.78;53.19;100975.83;1670587;85;21030;-51
2021/06/26 04:47:04;;;;;;;29.10;8.30;;;;;;;31.70;53.50;100966.39;1669519;86;21566;-52
2021/06/26 04:49:31;;;;;;;11.05;7.50;;;;;;;31.64;53.59;100957.63;1673655;85;21128;-51
2021/06/26 04:51:58;;;;;;;7.55;6.58;;;;;;;31.60;53.57;100971.07;1669535;85;21069;-52
2021/06/26 04:54:25;;;;;;;12.82;6.67;;;;;;;31.56;53.69;100975.09;1664117;86;21104;-52
2021/06/26 04:56:53;;;;;;;8.30;6.37;;;;;;;31.53;54.02;100965.17;1665560;86;21537;-49
2021/06/26 04:59:20;;;;;;;13.28;6.58;;;;;;;31.50;54.24;100965.48;1665192;84;21046;-51
2021/06/26 05:01:47;;;;;;;10.55;7.22;;;;;;;31.49;54.36;100968.67;1670263;85;21133;-51
2021/06/26 05:04:13;;;;;;;7.83;7.03;;;;;;;31.45;54.36;100972.69;1664272;85;21104;-55
2021/06/26 05:06:42;;;;;;;12.90;7.10;;;;;;;31.44;54.41;100981.78;1665953;86;21073;-53
2021/06/26 05:09:09;;;;;;;11.65;7.22;;;;;;;31.44;54.37;100977.74;1662928;85;21022;-54
2021/06/26 05:11:36;;;;;;;8.23;6.40;;;;;;;31.45;54.34;100979.41;1664788;85;21041;-57
2021/06/26 05:14:03;;;;;;;14.40;7.00;;;;;;;31.47;54.31;100980.09;1664222;86;21544;-53
2021/06/26 05:16:30;;;;;;;8.88;6.92;;;;;;;31.53;54.14;100987.51;1672818;85;21568;-52
2021/06/26 05:18:56;;;;;;;12.82;7.30;;;;;;;31.59;54.13;100984.20;1668275;86;21541;-53
2021/06/26 05:21:25;;;;;;;8.93;6.80;;;;;;;31.68;53.97;100977.82;1671163;85;21084;-53
2021/06/26 05:23:52;;;;;;;17.00;7.65;;;;;;;31.78;53.67;100978.52;1663280;86;21042;-52
2021/06/26 05:26:19;;;;;;;12.63;6.95;;;;;;;31.86;53.41;100975.84;1666021;85;21072;-59
2021/06/26 05:28:46;;;;;;;11.28;8.08;;;;;;;31.94;53.45;100975.89;1663111;86;21594;-49
2021/06/26 05:31:13;;;;;;;12.23;7.10;;;;;;;31.99;53.17;100976.25;1670544;85;21065;-53
2021/06/26 05:33:40;;;;;;;10.13;7.47;;;;;;;32.02;53.09;100969.70;1667490;84;21076;-54
2021/06/26 05:36:08;;;;;;;11.75;7.25;;;;;;;32.08;53.13;100975.77;1660667;84;21044;-54
2021/06/26 05:38:35;;;;;;;13.32;7.10;;;;;;;32.12;52.65;100973.57;1648064;85;21049;-55
2021/06/26 05:41:02;;;;;;;15.98;7.70;;;;;;;32.15;52.35;100961.14;1606177;87;21054;-55
2021/06/26 05:43:28;;;;;;;10.08;7.55;;;;;;;32.19;52.00;100966.52;1622974;87;21052;-53
2021/06/26 05:45:57;;;;;;;11.57;7.33;;;;;;;32.21;51.86;100955.08;1626979;86;21121;-54
2021/06/26 05:48:23;;;;;;;10.08;6.85;;;;;;;32.21;52.02;100956.43;1627959;86;21140;-53
2021/06/26 05:50:50;;;;;;;11.30;6.70;;;;;;;32.24;51.83;100957.42;1628743;86;21098;-53
2021/06/26 05:53:20;;;;;;;13.25;7.00;;;;;;;32.28;52.07;100948.00;1632995;86;21135;-53
2021/06/26 05:55:56;;;;;;;9.88;7.03;;;;;;;32.35;52.01;100940.94;1602838;89;21051;-53
2021/06/26 05:58:30;;;;;;;12.90;6.62;;;;;;;32.40;51.72;100927.79;1600399;87;21073;-53
2021/06/26 06:00:57;;;;;;;10.43;6.95;;;;;;;32.43;51.47;100923.42;1612506;88;21482;-53
2021/06/26 06:03:24;;;;;;;11.22;6.75;;;;;;;32.48;51.58;100921.11;1644761;86;21079;-53
2021/06/26 06:05:51;;;;;;;10.95;7.35;;;;;;;32.53;51.29;100911.99;1618158;87;21554;-52
2021/06/26 06:08:21;;;;;;;15.28;6.90;;;;;;;32.59;51.24;100909.96;1614608;87;21115;-52
2021/06/26 06:10:48;;;;;;;9.03;6.35;;;;;;;32.67;50.90;100909.94;1651573;86;21506;-52
2021/06/26 06:13:17;;;;;;;10.72;6.87;;;;;;;32.74;50.80;100908.25;1648352;86;21109;-53
2021/06/26 06:15:45;;;;;;;15.58;7.40;;;;;;;32.80;50.81;100914.30;1646157;86;21085;-51
2021/06/26 06:18:13;;;;;;;9.08;6.25;;;;;;;32.90;50.74;100920.33;1620294;86;21106;-55
2021/06/26 06:20:40;;;;;;;10.13;6.33;;;;;;;33.02;50.66;100913.58;1645054;86;21543;-52
2021/06/26 06:23:08;;;;;;;9.30;6.03;;;;;;;33.12;50.21;100916.91;1633763;86;21082;-54
2021/06/26 06:25:37;;;;;;;12.82;6.85;;;;;;;33.20;50.11;100910.13;1640286;86;21495;-54
2021/06/26 06:28:04;;;;;;;9.75;6.85;;;;;;;33.27;49.92;100915.17;1628279;87;21144;-53
2021/06/26 06:30:32;;;;;;;13.08;6.30;;;;;;;33.32;49.92;100918.20;1622549;87;21547;-56
2021/06/26 06:33:02;;;;;;;14.87;6.65;;;;;;;33.31;50.09;100912.95;1647563;86;21128;-52
2021/06/26 06:35:29;;;;;;;12.33;6.80;;;;;;;33.29;50.18;100917.69;1618451;87;21079;-56
2021/06/26 06:37:56;;;;;;;12.55;6.53;;;;;;;33.25;50.20;100905.56;1610554;88;21065;-56
2021/06/26 06:40:23;;;;;;;9.73;6.50;;;;;;;33.18;50.62;100904.08;1618096;88;21562;-54
2021/06/26 06:42:50;;;;;;;9.58;6.90;;;;;;;33.15;50.82;100903.59;1614493;88;21073;-52
2021/06/26 06:45:17;;;;;;;8.83;6.70;;;;;;;33.15;51.06;100901.75;1614205;87;21135;-52
2021/06/26 06:47:44;;;;;;;11.70;7.00;;;;;;;33.15;50.93;100908.48;1597607;88;21442;-56
2021/06/26 06:50:12;;;;;;;11.35;6.33;;;;;;;33.15;50.65;100901.75;1602871;87;21169;-52
2021/06/26 06:52:39;;;;;;;14.93;7.35;;;;;;;33.13;50.81;100898.88;1618543;87;21093;-55
2021/06/26 06:55:07;;;;;;;14.40;7.20;;;;;;;33.11;51.09;100888.78;1602805;87;21628;-53
2021/06/26 06:57:33;;;;;;;11.55;7.00;;;;;;;33.11;51.01;100888.28;1601417;88;21135;-52
2021/06/26 07:00:00;;;;;;;11.15;7.70;;;;;;;33.09;51.13;100890.31;1607338;87;21066;-54
2021/06/26 07:02:27;;;;;;;12.58;7.60;;;;;;;33.09;51.25;100884.92;1639929;86;21187;-52
2021/06/26 07:04:54;;;;;;;16.87;9.60;;;;;;;33.10;51.12;100891.98;1642110;86;21529;-50
2021/06/26 07:07:21;;;;;;;13.80;8.65;;;;;;;33.13;51.02;100888.09;1644190;85;20987;-53
2021/06/26 07:09:48;;;;;;;12.25;8.13;;;;;;;33.17;51.23;100897.02;1639213;85;20999;-53
2021/06/26 07:12:15;;;;;;;12.25;7.87;;;;;;;33.20;51.06;100888.56;1636560;86;21092;-52
2021/06/26 07:14:44;;;;;;;11.65;7.33;;;;;;;33.21;50.98;100890.75;1611595;88;21165;-52
2021/06/26 07:17:11;;;;;;;9.90;7.50;;;;;;;33.22;50.92;100897.84;1637046;86;21152;-58
2021/06/26 07:19:38;;;;;;;12.35;7.35;;;;;;;33.22;50.65;100895.97;1632982;86;21030;-54
2021/06/26 07:22:05;;;;;;;11.15;7.17;;;;;;;33.21;50.60;100891.60;1607328;88;21057;-57
2021/06/26 07:24:32;;;;;;;14.05;7.65;;;;;;;33.28;50.48;100895.29;1578688;89;21051;-52
2021/06/26 07:27:02;;;;;;;8.53;6.60;;;;;;;33.34;50.41;100897.28;1583345;89;21057;-54
2021/06/26 07:29:28;;;;;;;9.63;7.20;;;;;;;33.39;50.32;100901.62;1576839;89;21642;-54
2021/06/26 07:31:55;;;;;;;12.47;7.45;;;;;;;33.43;50.15;100893.50;1615587;87;21030;-52
2021/06/26 07:34:22;;;;;;;12.58;7.67;;;;;;;33.44;50.31;100884.41;1660013;84;21058;-53
2021/06/26 07:36:48;;;;;;;14.20;6.92;;;;;;;33.50;49.95;100883.73;1661589;85;21008;-53
2021/06/26 07:39:15;;;;;;;10.05;6.95;;;;;;;33.54;49.85;100892.30;1651817;84;21066;-52
2021/06/26 07:41:43;;;;;;;12.53;7.60;;;;;;;33.55;49.81;100894.81;1647108;85;21118;-52
2021/06/26 07:44:10;;;;;;;15.20;8.38;;;;;;;33.56;49.92;100896.50;1665699;84;21505;-53
2021/06/26 07:46:37;;;;;;;15.95;7.47;;;;;;;33.56;50.11;100893.80;1619080;87;21046;-52
2021/06/26 07:49:03;;;;;;;14.20;7.65;;;;;;;33.58;50.15;100900.36;1634732;87;21089;-53
2021/06/26 07:51:30;;;;;;;18.95;8.40;;;;;;;33.58;50.20;100901.72;1632010;87;21061;-53
2021/06/26 07:53:57;;;;;;;20.45;7.35;;;;;;;33.59;50.05;100908.81;1640097;86;21596;-55
2021/06/26 07:56:23;;;;;;;9.18;7.72;;;;;;;33.58;50.08;100905.27;1663695;85;21058;-51
2021/06/26 07:58:51;;;;;;;13.38;8.13;;;;;;;33.58;50.15;100913.36;1628109;87;21124;-54
2021/06/26 08:01:18;;;;;;;12.28;7.33;;;;;;;33.57;50.28;100907.61;1623656;86;21038;-53
2021/06/26 08:03:45;;;;;;;17.42;7.05;;;;;;;33.58;50.28;100912.00;1637132;86;21549;-55
2021/06/26 08:06:12;;;;;;;12.63;7.97;;;;;;;33.60;50.40;100918.56;1653821;86;21041;-51
2021/06/26 08:08:39;;;;;;;10.75;7.22;;;;;;;33.60;50.02;100915.37;1656517;86;21572;-58
2021/06/26 08:11:05;;;;;;;16.02;7.53;;;;;;;33.62;50.14;100917.38;1648951;86;21086;-51
2021/06/26 08:13:33;;;;;;;12.33;8.43;;;;;;;33.62;50.25;100917.38;1654855;85;21139;-53
2021/06/26 08:16:02;;;;;;;15.83;7.35;;;;;;;33.64;50.13;100919.39;1660412;84;21069;-52
2021/06/26 08:18:30;;;;;;;16.30;8.28;;;;;;;33.65;50.02;100922.41;1655215;85;21524;-52
2021/06/26 08:20:57;;;;;;;16.73;8.33;;;;;;;33.65;50.07;100911.61;1651234;86;21080;-54
2021/06/26 08:23:24;;;;;;;14.65;7.42;;;;;;;33.64;50.39;100912.64;1658291;84;21097;-54
2021/06/26 08:25:50;;;;;;;13.00;7.72;;;;;;;33.64;50.77;100909.94;1655606;86;21038;-55
2021/06/26 08:28:17;;;;;;;19.02;7.72;;;;;;;33.68;51.02;100921.72;1654952;86;21084;-52
2021/06/26 08:30:44;;;;;;;17.00;8.13;;;;;;;33.71;50.99;100914.63;1664238;85;21038;-54
2021/06/26 08:33:11;;;;;;;16.20;8.00;;;;;;;33.74;51.07;100911.58;1661778;85;21536;-52
2021/06/26 08:35:38;;;;;;;13.60;7.30;;;;;;;33.80;50.82;100916.27;1662057;86;21522;-57
2021/06/26 08:38:05;;;;;;;14.55;6.67;;;;;;;33.84;50.71;100914.35;1635687;87;21031;-53
2021/06/26 08:40:31;;;;;;;10.88;6.50;;;;;;;33.90;50.20;100914.16;1631090;87;21079;-53
2021/06/26 08:42:58;;;;;;;15.08;7.65;;;;;;;33.95;49.76;100912.59;1594250;89;21602;-52
2021/06/26 08:45:25;;;;;;;12.33;6.87;;;;;;;34.00;49.60;100908.89;1600016;89;21067;-54
2021/06/26 08:47:53;;;;;;;14.40;7.08;;;;;;;34.03;49.64;100909.02;1654602;84;21034;-57
2021/06/26 08:50:23;;;;;;;18.15;7.05;;;;;;;34.09;49.44;100908.29;1664012;84;21482;-56
2021/06/26 08:52:50;;;;;;;11.90;7.08;;;;;;;34.13;49.16;100906.91;1653259;84;21595;-54
2021/06/26 08:55:17;;;;;;;10.80;6.12;;;;;;;34.20;48.92;100911.92;1639701;86;21142;-54
2021/06/26 08:57:45;;;;;;;13.08;6.85;;;;;;;34.24;49.00;100910.03;1605987;88;21097;-55
2021/06/26 09:00:24;;;;;;;10.75;6.10;;;;;;;34.31;48.88;100907.45;1598605;88;21067;-54
2021/06/26 09:02:54;;;;;;;14.28;7.12;;;;;;;34.33;48.49;100902.70;1616437;86;21081;-54
2021/06/26 09:05:28;;;;;;;14.10;6.58;;;;;;;34.37;48.34;100906.71;1642971;85;21034;-55
2021/06/26 09:08:16;;;;;;;13.65;6.75;;;;;;;34.40;48.51;100907.17;1671167;85;20995;-54
2021/06/26 09:10:47;;;;;;;16.80;7.30;;;;;;;34.42;48.75;100906.98;1649351;85;21018;-55
2021/06/26 09:15:52;;;;;;;14.73;7.60;;;;;;;34.47;49.00;100901.03;1564382;89;21085;-53
2021/06/26 09:18:20;;;;;;;11.35;6.62;;;;;;;34.52;49.06;100899.48;1515296;91;21077;-57
2021/06/26 09:23:23;;;;;;;14.13;7.22;;;;;;;34.60;48.95;100899.42;1479958;95;21114;-55
2021/06/26 09:25:51;;;;;;;12.60;6.83;;;;;;;34.61;48.79;100900.24;1478739;95;21234;-54
2021/06/26 09:28:26;;;;;;;12.73;7.25;;;;;;;34.65;48.86;100899.70;1471034;96;21099;-54
2021/06/26 09:30:53;;;;;;;13.90;7.05;;;;;;;34.67;49.22;100890.88;1473706;95;21603;-56
2021/06/26 09:33:26;;;;;;;13.50;6.28;;;;;;;34.69;49.63;100884.78;1467890;96;21160;-56
2021/06/26 09:36:09;;;;;;;12.15;8.33;;;;;;;34.70;49.61;100883.77;1474555;95;21089;-51
2021/06/26 09:38:46;;;;;;;13.48;6.85;;;;;;;34.72;49.56;100884.42;1411837;100;21225;-54
2021/06/26 09:41:16;;;;;;;10.60;7.08;;;;;;;34.76;49.61;100876.27;1345050;104;21689;-53
2021/06/26 09:43:44;;;;;;;;;;;;;;;34.80;49.39;100870.81;1322711;105;21228;-52
2021/06/26 09:46:15;;;;;;;19.12;12.95;;;;;;;34.84;49.19;100864.00;1316405;108;20167;-53
2021/06/26 09:48:59;;;;;;;14.40;7.35;;;;;;;34.87;49.22;100858.20;1333678;106;21175;-53
2021/06/26 09:51:28;;;;;;;20.70;8.75;;;;;;;34.87;49.29;100851.45;1358774;104;21159;-56
2021/06/26 09:54:01;;;;;;;15.93;7.95;;;;;;;34.90;49.25;100848.38;1345125;105;21155;-54
2021/06/26 09:56:45;;;;;;;10.38;7.58;;;;;;;34.94;49.19;100852.89;1341785;104;21158;-53
2021/06/26 09:59:17;;;;;;;15.90;8.73;;;;;;;34.97;49.07;100852.52;1355814;105;21147;-54
2021/06/26 10:01:46;;;;;;;;;;;;;;;35.02;49.21;100842.84;1340286;105;21728;-53
2021/06/26 10:04:14;;;;;;;10.53;6.30;;;;;;;35.04;49.17;100842.14;1333275;107;20410;-54
2021/06/26 10:06:43;;;;;;;12.78;7.85;;;;;;;35.07;49.35;100840.42;1336801;106;21527;-53
2021/06/26 10:09:10;;;;;;;11.28;7.05;;;;;;;35.11;49.43;100844.42;1341138;105;21226;-53
2021/06/26 10:11:39;;;;;;;10.90;7.30;;;;;;;35.14;48.71;100845.38;1334273;103;21490;-52
2021/06/26 10:14:08;;;;;;;10.95;6.87;;;;;;;35.17;47.77;100840.95;1396581;102;21098;-53
2021/06/26 10:16:36;;;;;;;14.07;7.53;;;;;;;35.23;47.23;100846.62;1384873;102;21194;-54
2021/06/26 10:19:09;;;;;;;15.48;8.10;;;;;;;35.29;46.75;100851.27;1409549;96;21119;-53
2021/06/26 10:21:36;;;;;;;13.15;6.47;;;;;;;35.33;45.93;100855.27;1464317;97;21201;-54
2021/06/26 10:24:15;;;;;;;13.28;7.80;;;;;;;35.38;45.71;100852.84;1468133;97;21159;-53
2021/06/26 10:26:43;;;;;;;14.33;8.65;;;;;;;35.46;45.80;100862.19;1439284;98;21601;-53
2021/06/26 10:29:10;;;;;;;15.03;9.63;;;;;;;35.53;45.45;100867.20;1434129;99;21674;-54
2021/06/26 10:31:41;;;;;;;13.25;8.88;;;;;;;35.56;44.94;100860.88;1448927;98;21162;-53
2021/06/26 10:34:22;;;;;;;14.75;9.65;;;;;;;35.56;44.73;100858.69;1440973;98;21109;-54
2021/06/26 10:36:52;;;;;;;20.30;10.35;;;;;;;35.58;44.27;100862.03;1485698;95;21136;-52
2021/06/26 10:39:25;;;;;;;15.10;9.63;;;;;;;35.56;44.68;100869.51;1445754;97;21106;-53
2021/06/26 10:42:10;;;;;;;15.98;10.48;;;;;;;35.51;45.15;100861.14;1483567;95;21100;-53
2021/06/26 10:44:53;;;;;;;15.85;9.23;;;;;;;35.47;45.34;100867.97;1485111;95;21648;-54
2021/06/26 10:47:41;;;;;;;15.10;8.68;;;;;;;35.47;45.36;100867.97;1490069;95;21088;-52
2021/06/26 10:50:15;;;;;;;17.27;8.93;;;;;;;35.48;44.99;100867.77;1496434;93;21549;-52
2021/06/26 10:52:53;;;;;;;15.53;8.75;;;;;;;35.49;44.96;100868.08;1517878;93;21167;-53
2021/06/26 10:55:33;;;;;;;12.47;9.53;;;;;;;35.50;44.88;100867.06;1507649;93;21966;-53
2021/06/26 10:58:01;;;;;;;18.65;9.98;;;;;;;35.54;44.67;100864.30;1520646;93;21087;-55
2021/06/26 11:00:39;;;;;;;16.10;9.15;;;;;;;35.58;44.69;100872.86;1504148;93;21053;-52
2021/06/26 11:03:23;;;;;;;16.35;8.70;;;;;;;35.61;44.81;100869.79;1503408;93;21097;-55
2021/06/26 11:05:50;;;;;;;18.00;9.60;;;;;;;35.64;44.90;100862.62;1497022;93;21053;-52
2021/06/26 11:08:19;;;;;;;18.52;8.90;;;;;;;35.68;44.46;100863.91;1504819;93;21042;-53
2021/06/26 11:10:54;;;;;;;13.90;9.55;;;;;;;35.72;44.32;100858.42;1508292;93;21113;-54
2021/06/26 11:13:23;;;;;;;17.52;8.98;;;;;;;35.75;44.54;100858.05;1500836;93;21097;-54
2021/06/26 11:16:06;;;;;;;16.12;9.28;;;;;;;35.74;45.11;100855.01;1508123;93;22609;-55
2021/06/26 11:18:34;;;;;;;15.70;13.60;;;;;;;35.73;44.83;100858.26;1466048;96;21199;-54
2021/06/26 11:21:02;;;;;;;16.73;8.98;;;;;;;35.72;45.18;100853.86;1480745;96;21194;-52
2021/06/26 11:23:29;;;;;;;13.75;9.53;;;;;;;35.71;44.62;100854.91;1516604;93;21181;-54
2021/06/26 11:26:02;;;;;;;13.32;9.58;;;;;;;35.72;44.23;100855.72;1507006;94;21179;-54
2021/06/26 11:28:29;;;;;;;14.93;9.30;;;;;;;35.74;44.11;100851.80;1513853;93;21062;-57
2021/06/26 11:31:02;;;;;;;17.75;13.22;;;;;;;35.76;45.77;100859.71;1516171;93;21061;-56
2021/06/26 11:33:35;;;;;;;14.38;11.68;;;;;;;35.77;45.79;100864.11;1518206;93;21052;-53